Time;durP1;ratioP1;P1;durP2;ratioP2;P2;SDS_P1;SDS_P2;PMS_P1;PMS_P2;Temp;Humidity;BMP_temperature;BMP_pressure;BME280_temperature;BME280_humidity;BME280_pressure;Samples;Min_cycle;Max_cycle;Signal;HPM_P1;HPM_P2
2021/01/01 00:01:12;;;;;;;47.47;24.70;;;3.90;94.00;;;;;;5044973;28;20427;-73
2021/01/01 00:03:38;;;;;;;44.27;23.23;;;3.90;94.10;;;;;;5058678;28;20212;-73
2021/01/01 00:06:04;;;;;;;50.10;23.20;;;4.00;94.20;;;;;;5058700;28;20430;-72
2021/01/01 00:08:30;;;;;;;41.40;21.30;;;4.00;94.10;;;;;;5030830;28;20247;-71
2021/01/01 00:10:56;;;;;;;37.20;19.30;;;4.10;94.00;;;;;;5058677;28;20418;-71
2021/01/01 00:13:21;;;;;;;30.80;16.60;;;4.20;93.80;;;;;;5045588;28;20868;-72
2021/01/01 00:15:47;;;;;;;29.87;17.10;;;4.20;93.40;;;;;;5044897;28;20214;-72
2021/01/01 00:18:13;;;;;;;28.37;16.40;;;4.30;93.10;;;;;;5064808;28;20226;-72
2021/01/01 00:20:42;;;;;;;26.77;14.30;;;4.30;92.90;;;;;;5052057;28;20191;-72
2021/01/01 00:23:09;;;;;;;23.40;13.13;;;4.30;92.80;;;;;;5045619;28;20205;-72
2021/01/01 00:25:35;;;;;;;27.17;14.20;;;4.20;92.70;;;;;;5042946;28;20538;-72
2021/01/01 00:28:01;;;;;;;21.30;12.27;;;4.20;92.70;;;;;;5064809;28;20461;-73
2021/01/01 00:30:27;;;;;;;17.23;10.10;;;4.20;92.80;;;;;;5063486;28;20437;-72
2021/01/01 00:32:53;;;;;;;21.50;10.90;;;4.20;92.80;;;;;;5065305;28;20553;-71
2021/01/01 00:35:19;;;;;;;21.00;11.03;;;4.20;92.70;;;;;;5063987;28;20191;-71
2021/01/01 00:37:45;;;;;;;21.17;12.07;;;4.20;92.70;;;;;;5063637;28;20215;-71
2021/01/01 00:40:12;;;;;;;18.57;10.30;;;4.20;92.70;;;;;;5063289;28;20430;-72
2021/01/01 00:42:38;;;;;;;20.00;9.98;;;4.20;92.90;;;;;;5065225;28;20503;-71
2021/01/01 00:45:05;;;;;;;18.07;10.50;;;4.20;92.70;;;;;;5042682;28;20180;-71
2021/01/01 00:47:31;;;;;;;19.97;9.97;;;4.20;92.60;;;;;;5043201;28;20419;-71
2021/01/01 00:49:57;;;;;;;18.70;10.40;;;4.20;92.60;;;;;;5042214;28;20435;-71
2021/01/01 00:52:23;;;;;;;19.60;10.37;;;4.10;92.70;;;;;;5044695;28;20240;-72
2021/01/01 00:54:49;;;;;;;22.50;10.60;;;4.10;93.00;;;;;;5044974;28;20450;-71
2021/01/01 00:57:15;;;;;;;16.07;9.00;;;4.10;93.10;;;;;;5046520;28;20549;-73
2021/01/01 00:59:41;;;;;;;21.23;12.30;;;4.10;93.10;;;;;;5045794;28;20192;-73
2021/01/01 01:02:06;;;;;;;19.43;10.30;;;4.10;93.10;;;;;;5065740;28;20184;-72
2021/01/01 01:04:32;;;;;;;23.13;10.80;;;4.10;93.30;;;;;;5064719;28;20211;-72
2021/01/01 01:06:58;;;;;;;19.10;10.97;;;4.10;93.40;;;;;;5046476;28;20836;-72
2021/01/01 01:09:23;;;;;;;22.63;11.40;;;4.10;93.50;;;;;;5044179;28;20219;-72
2021/01/01 01:11:49;;;;;;;22.97;11.10;;;4.10;93.40;;;;;;5045097;28;20195;-72
2021/01/01 01:14:15;;;;;;;18.67;10.00;;;4.10;93.50;;;;;;5041511;28;20212;-71
2021/01/01 01:16:40;;;;;;;20.93;10.40;;;4.10;93.20;;;;;;5044835;28;20198;-75
2021/01/01 01:19:06;;;;;;;17.73;9.97;;;4.10;93.30;;;;;;5044391;28;20279;-74
2021/01/01 01:21:32;;;;;;;19.47;10.33;;;4.20;93.50;;;;;;5045006;28;20242;-75
2021/01/01 01:23:58;;;;;;;16.87;9.63;;;4.30;93.30;;;;;;5043405;28;20526;-74
2021/01/01 01:26:24;;;;;;;23.33;11.67;;;4.30;93.00;;;;;;5043750;28;20224;-75
2021/01/01 01:28:51;;;;;;;21.67;11.67;;;4.40;92.90;;;;;;5059379;28;20899;-76
2021/01/01 01:31:17;;;;;;;21.53;10.10;;;4.30;92.90;;;;;;5066426;28;20426;-75
2021/01/01 01:33:44;;;;;;;17.83;9.13;;;4.40;92.80;;;;;;5056839;28;20498;-73
2021/01/01 01:36:10;;;;;;;18.73;9.30;;;4.40;92.60;;;;;;5044944;28;20427;-72
2021/01/01 01:38:35;;;;;;;17.93;10.17;;;4.40;92.30;;;;;;5046376;28;20530;-73
2021/01/01 01:41:01;;;;;;;20.13;10.00;;;4.40;92.20;;;;;;5061167;28;20447;-74
2021/01/01 01:43:28;;;;;;;19.13;9.63;;;4.40;92.30;;;;;;5062362;28;20212;-72
2021/01/01 01:45:55;;;;;;;16.23;9.07;;;4.40;92.20;;;;;;5074137;28;20452;-72
2021/01/01 01:48:37;;;;;;;19.13;9.40;;;4.30;92.00;;;;;;5067336;28;21021;-74
2021/01/01 01:51:04;;;;;;;16.00;8.53;;;4.30;92.30;;;;;;5060868;28;20419;-73
2021/01/01 01:53:34;;;;;;;20.33;10.47;;;4.30;92.10;;;;;;5050755;28;20438;-74
2021/01/01 01:56:00;;;;;;;15.47;9.30;;;4.30;92.10;;;;;;5053892;28;21264;-73
2021/01/01 01:58:27;;;;;;;16.47;9.10;;;4.30;92.20;;;;;;5046779;28;20431;-73
2021/01/01 02:00:58;;;;;;;17.30;8.88;;;4.30;92.20;;;;;;5045319;28;20517;-73
2021/01/01 02:03:32;;;;;;;16.80;9.55;;;4.20;92.10;;;;;;5051970;28;20820;-74
2021/01/01 02:05:59;;;;;;;17.60;9.52;;;4.20;92.30;;;;;;5052556;28;20184;-73
2021/01/01 02:08:25;;;;;;;22.53;9.73;;;4.10;92.40;;;;;;5066377;28;20248;-73
2021/01/01 02:10:53;;;;;;;20.70;10.00;;;4.20;92.60;;;;;;5051985;28;20532;-73
2021/01/01 02:13:20;;;;;;;19.20;10.00;;;4.20;92.50;;;;;;5046150;28;20454;-73
2021/01/01 02:15:46;;;;;;;21.20;10.80;;;4.20;92.50;;;;;;5045171;28;20271;-73
2021/01/01 02:18:12;;;;;;;21.80;11.43;;;4.10;92.60;;;;;;5046088;28;20677;-73
2021/01/01 02:20:38;;;;;;;19.45;9.90;;;4.20;92.60;;;;;;5045728;28;20505;-73
2021/01/01 02:23:04;;;;;;;20.70;10.47;;;4.20;92.80;;;;;;5044969;28;20204;-73
2021/01/01 02:25:30;;;;;;;16.03;9.00;;;4.20;92.60;;;;;;5045203;28;20193;-73
2021/01/01 02:27:57;;;;;;;18.50;10.43;;;4.20;92.60;;;;;;5046243;28;20204;-73
2021/01/01 02:30:23;;;;;;;19.23;10.52;;;4.30;92.50;;;;;;5044507;28;20512;-73
2021/01/01 02:32:49;;;;;;;20.10;9.90;;;4.30;92.40;;;;;;5045700;28;20256;-73
2021/01/01 02:35:15;;;;;;;20.60;10.63;;;4.30;92.60;;;;;;5047883;28;20434;-73
2021/01/01 02:37:41;;;;;;;19.00;9.83;;;4.30;92.60;;;;;;5049988;28;20502;-73
2021/01/01 02:40:07;;;;;;;20.13;11.83;;;4.30;92.70;;;;;;5047949;28;20426;-73
2021/01/01 02:42:34;;;;;;;19.63;9.87;;;4.40;92.50;;;;;;5048561;28;20208;-74
2021/01/01 02:45:00;;;;;;;19.97;10.80;;;4.40;92.30;;;;;;5048250;28;20801;-73
2021/01/01 02:47:25;;;;;;;19.03;9.80;;;4.50;91.90;;;;;;5048017;28;20685;-73
2021/01/01 02:49:51;;;;;;;18.67;10.03;;;4.40;91.80;;;;;;5049196;28;20254;-74
2021/01/01 02:52:17;;;;;;;17.10;9.30;;;4.40;92.00;;;;;;5062609;28;20212;-73
2021/01/01 02:54:44;;;;;;;20.57;9.97;;;4.40;92.00;;;;;;5048437;28;20667;-73
2021/01/01 02:57:10;;;;;;;18.67;9.77;;;4.40;92.10;;;;;;5049322;28;20183;-74
2021/01/01 02:59:36;;;;;;;23.27;10.87;;;4.30;92.20;;;;;;5062690;28;20421;-72
2021/01/01 03:02:01;;;;;;;18.10;9.93;;;4.30;92.30;;;;;;5049519;28;20237;-72
2021/01/01 03:04:27;;;;;;;21.60;11.20;;;4.30;92.50;;;;;;5048482;28;20211;-74
2021/01/01 03:06:53;;;;;;;23.37;11.40;;;4.30;92.80;;;;;;5061541;28;20192;-73
2021/01/01 03:09:19;;;;;;;20.90;10.57;;;4.20;93.10;;;;;;5062024;28;20211;-73
2021/01/01 03:11:44;;;;;;;21.37;10.23;;;4.20;93.60;;;;;;5055950;28;20182;-74
2021/01/01 03:14:10;;;;;;;21.43;11.87;;;4.10;94.10;;;;;;5069132;28;20591;-73
2021/01/01 03:16:36;;;;;;;23.50;11.53;;;4.00;94.40;;;;;;5069547;28;20171;-74
2021/01/01 03:19:01;;;;;;;19.87;10.47;;;4.00;94.70;;;;;;5063018;28;20555;-75
2021/01/01 03:21:27;;;;;;;21.97;10.63;;;3.90;95.10;;;;;;5048865;28;20204;-73
2021/01/01 03:23:53;;;;;;;22.63;11.20;;;3.90;95.30;;;;;;5048293;28;20764;-73
2021/01/01 03:26:19;;;;;;;20.60;11.33;;;3.90;95.50;;;;;;5047070;28;20526;-74
2021/01/01 03:28:44;;;;;;;21.73;10.87;;;3.80;95.70;;;;;;5048889;28;20200;-73
2021/01/01 03:31:10;;;;;;;26.87;13.03;;;3.80;95.90;;;;;;5049347;28;20181;-73
2021/01/01 03:33:36;;;;;;;20.47;10.93;;;3.80;95.90;;;;;;5048900;28;20216;-73
2021/01/01 03:36:03;;;;;;;26.27;12.67;;;3.80;96.10;;;;;;5054133;28;20201;-73
2021/01/01 03:38:32;;;;;;;22.08;11.38;;;3.70;96.20;;;;;;5055059;28;20509;-74
2021/01/01 03:40:59;;;;;;;22.38;11.73;;;3.80;96.50;;;;;;5048647;28;20192;-75
2021/01/01 03:43:25;;;;;;;20.73;10.63;;;3.90;96.70;;;;;;5047815;28;20262;-73
2021/01/01 03:45:51;;;;;;;19.00;10.87;;;3.90;96.80;;;;;;5046568;28;20431;-74
2021/01/01 03:48:18;;;;;;;24.13;10.80;;;3.90;96.70;;;;;;5049005;28;20983;-73
2021/01/01 03:50:44;;;;;;;22.48;11.10;;;3.90;96.50;;;;;;5061722;28;20231;-73
2021/01/01 03:53:10;;;;;;;20.87;10.57;;;3.80;96.50;;;;;;5061342;28;20660;-74
2021/01/01 03:55:36;;;;;;;25.00;10.97;;;3.80;96.70;;;;;;5060168;28;20469;-75
2021/01/01 03:58:02;;;;;;;24.53;11.50;;;3.80;96.80;;;;;;5049637;28;20208;-75
2021/01/01 04:00:27;;;;;;;27.40;11.37;;;3.80;96.90;;;;;;5047219;28;20219;-74
2021/01/01 04:02:53;;;;;;;20.67;12.10;;;3.70;97.10;;;;;;5048590;28;20443;-75
2021/01/01 04:05:19;;;;;;;25.70;11.93;;;3.70;97.30;;;;;;5053946;28;20180;-75
2021/01/01 04:07:45;;;;;;;27.40;11.80;;;3.70;97.50;;;;;;5054603;28;20209;-74
2021/01/01 04:10:11;;;;;;;25.97;12.37;;;3.80;97.60;;;;;;5068509;28;20429;-75
2021/01/01 04:12:37;;;;;;;20.70;11.03;;;3.80;97.60;;;;;;5067421;28;20587;-75
2021/01/01 04:15:04;;;;;;;29.33;13.17;;;3.80;97.60;;;;;;5047673;28;20480;-74
2021/01/01 04:17:29;;;;;;;24.17;12.23;;;3.80;97.60;;;;;;5046671;28;20188;-74
2021/01/01 04:19:55;;;;;;;32.23;13.03;;;3.80;97.60;;;;;;5054241;28;20429;-74
2021/01/01 04:22:21;;;;;;;24.40;11.40;;;3.90;97.60;;;;;;5053579;28;20188;-74
2021/01/01 04:24:46;;;;;;;26.37;12.80;;;3.90;97.60;;;;;;5067202;28;20195;-74
2021/01/01 04:27:12;;;;;;;21.93;11.20;;;3.90;97.60;;;;;;5063456;28;20208;-75
2021/01/01 04:29:38;;;;;;;20.27;10.70;;;3.90;97.40;;;;;;5067227;28;20261;-74
2021/01/01 04:32:03;;;;;;;25.73;12.40;;;3.90;97.30;;;;;;5053807;28;20207;-73
2021/01/01 04:34:29;;;;;;;28.07;12.57;;;3.90;97.20;;;;;;5047216;28;20216;-74
2021/01/01 04:36:55;;;;;;;24.40;12.60;;;3.80;97.30;;;;;;5046742;28;20458;-73
2021/01/01 04:39:21;;;;;;;26.90;11.63;;;3.80;97.50;;;;;;5055840;28;20231;-73
2021/01/01 04:41:49;;;;;;;27.97;12.87;;;3.90;97.60;;;;;;5067090;28;20426;-74
2021/01/01 04:44:16;;;;;;;29.63;13.40;;;3.90;97.70;;;;;;5054359;28;20252;-74
2021/01/01 04:46:42;;;;;;;24.47;11.60;;;3.90;97.70;;;;;;5067559;28;20970;-72
2021/01/01 04:49:08;;;;;;;22.60;11.10;;;3.90;97.60;;;;;;5055484;28;21042;-72
2021/01/01 04:51:35;;;;;;;26.17;12.07;;;3.90;97.50;;;;;;5069646;28;20414;-73
2021/01/01 04:54:03;;;;;;;25.47;11.77;;;3.90;97.50;;;;;;5069840;28;21152;-74
2021/01/01 04:56:28;;;;;;;26.33;12.17;;;3.90;97.50;;;;;;5056574;28;20822;-73
2021/01/01 04:58:54;;;;;;;26.10;12.67;;;3.90;97.60;;;;;;5062390;28;20411;-75
2021/01/01 05:01:24;;;;;;;25.93;12.30;;;3.90;97.50;;;;;;5062589;28;20425;-74
2021/01/01 05:03:50;;;;;;;28.77;13.33;;;3.90;97.50;;;;;;5068802;28;20602;-73
2021/01/01 05:06:27;;;;;;;25.57;12.50;;;3.90;97.40;;;;;;5068093;28;20430;-73
2021/01/01 05:08:53;;;;;;;27.45;14.45;;;3.90;97.40;;;;;;5067656;28;20654;-74
2021/01/01 05:11:21;;;;;;;26.23;12.63;;;3.90;97.30;;;;;;5055550;28;20182;-72
2021/01/01 05:14:01;;;;;;;37.67;12.32;;;3.80;97.40;;;;;;5058248;28;20209;-73
2021/01/01 05:16:27;;;;;;;25.33;11.73;;;3.90;97.60;;;;;;5047074;28;20849;-73
2021/01/01 05:18:53;;;;;;;31.63;14.40;;;3.90;97.60;;;;;;5047581;28;20438;-72
2021/01/01 05:21:26;;;;;;;28.47;13.70;;;3.90;97.60;;;;;;5048699;28;20431;-73
2021/01/01 05:23:54;;;;;;;25.37;12.47;;;3.90;97.70;;;;;;5061867;28;21015;-72
2021/01/01 05:26:27;;;;;;;28.65;14.30;;;3.90;97.70;;;;;;5068282;28;20422;-72
2021/01/01 05:29:03;;;;;;;27.40;12.90;;;3.90;97.70;;;;;;5066552;28;20929;-73
2021/01/01 05:31:31;;;;;;;27.50;12.17;;;3.90;97.80;;;;;;5047418;28;20429;-76
2021/01/01 05:34:03;;;;;;;27.10;12.40;;;3.90;97.80;;;;;;5049040;28;20467;-75
2021/01/01 05:36:36;;;;;;;30.97;14.37;;;3.90;98.00;;;;;;5049067;28;20476;-75
2021/01/01 05:39:22;;;;;;;30.52;13.70;;;4.00;98.00;;;;;;5061204;28;20434;-75
2021/01/01 05:41:51;;;;;;;28.67;13.60;;;4.00;97.80;;;;;;5050710;28;20307;-75
2021/01/01 05:44:18;;;;;;;26.77;12.20;;;4.00;97.60;;;;;;5057584;28;20951;-75
2021/01/01 05:46:56;;;;;;;25.17;12.00;;;4.00;97.40;;;;;;5062880;28;20429;-75
2021/01/01 05:49:24;;;;;;;27.40;12.43;;;4.00;97.20;;;;;;5047352;28;21028;-75
2021/01/01 05:52:23;;;;;;;26.88;11.65;;;3.90;97.10;;;;;;5048824;28;20431;-75
2021/01/01 05:55:09;;;;;;;25.73;11.93;;;3.90;97.10;;;;;;5039563;28;20212;-75
2021/01/01 05:57:36;;;;;;;24.67;11.80;;;3.90;97.40;;;;;;5058814;28;20435;-76
2021/01/01 06:00:07;;;;;;;27.80;11.60;;;3.90;97.60;;;;;;5052756;28;20422;-74
2021/01/01 06:02:42;;;;;;;25.20;12.93;;;3.90;97.70;;;;;;5057673;28;20568;-74
2021/01/01 06:05:10;;;;;;;21.13;11.02;;;3.90;97.80;;;;;;5047026;28;20422;-75
2021/01/01 06:07:37;;;;;;;19.40;10.00;;;3.90;97.80;;;;;;5061398;28;20190;-75
2021/01/01 06:10:07;;;;;;;22.17;9.83;;;3.90;97.70;;;;;;5049201;28;20473;-74
2021/01/01 06:12:37;;;;;;;20.17;9.17;;;3.80;97.40;;;;;;5065547;28;20538;-74
2021/01/01 06:15:06;;;;;;;20.48;9.40;;;3.70;97.10;;;;;;5040103;28;20786;-74
2021/01/01 06:17:51;;;;;;;15.70;8.30;;;3.60;96.90;;;;;;5065968;28;20180;-75
2021/01/01 06:20:19;;;;;;;17.52;9.43;;;3.40;96.80;;;;;;5060951;28;20440;-74
2021/01/01 06:23:08;;;;;;;14.10;7.90;;;3.30;97.00;;;;;;5059226;28;20360;-73
2021/01/01 06:25:35;;;;;;;18.77;8.30;;;3.30;97.20;;;;;;5071465;28;20432;-74
2021/01/01 06:28:01;;;;;;;19.00;8.35;;;3.20;96.60;;;;;;5065389;28;20488;-75
2021/01/01 06:30:28;;;;;;;20.97;9.07;;;3.10;96.60;;;;;;5064466;28;20590;-75
2021/01/01 06:32:54;;;;;;;15.47;7.50;;;3.20;97.00;;;;;;5051343;28;20469;-75
2021/01/01 06:35:21;;;;;;;16.60;8.20;;;3.20;97.20;;;;;;5051105;28;20543;-75
2021/01/01 06:37:52;;;;;;;15.38;7.85;;;3.20;97.30;;;;;;5065175;28;20197;-74
2021/01/01 06:40:21;;;;;;;14.27;8.15;;;3.20;97.40;;;;;;5052327;28;20711;-74
2021/01/01 06:43:08;;;;;;;15.85;8.15;;;3.10;97.30;;;;;;5060037;28;20215;-74
2021/01/01 06:45:42;;;;;;;11.82;6.78;;;3.20;97.70;;;;;;5052178;28;20185;-73
2021/01/01 06:48:11;;;;;;;15.05;7.95;;;3.30;97.70;;;;;;5052546;28;20219;-73
2021/01/01 06:50:40;;;;;;;17.27;8.18;;;3.30;97.60;;;;;;5052392;28;20242;-73
2021/01/01 06:53:09;;;;;;;15.60;7.90;;;3.30;97.40;;;;;;5053523;28;20204;-73
2021/01/01 06:55:37;;;;;;;15.43;7.63;;;3.30;96.90;;;;;;5040908;28;20423;-74
2021/01/01 06:58:03;;;;;;;12.90;5.77;;;3.30;96.80;;;;;;5050251;28;20630;-73
2021/01/01 07:00:47;;;;;;;10.73;6.53;;;3.20;96.70;;;;;;5051090;28;20427;-74
2021/01/01 07:03:28;;;;;;;13.43;6.40;;;3.20;96.20;;;;;;5050159;28;20447;-73
2021/01/01 07:06:01;;;;;;;11.43;6.05;;;3.20;95.80;;;;;;5063098;28;20426;-74
2021/01/01 07:08:42;;;;;;;11.02;6.00;;;3.20;95.60;;;;;;5049721;28;20230;-76
2021/01/01 07:11:17;;;;;;;13.23;6.60;;;3.20;95.90;;;;;;5051271;28;20180;-74
2021/01/01 07:13:48;;;;;;;12.60;7.27;;;3.20;96.00;;;;;;5049336;28;20204;-73
2021/01/01 07:16:18;;;;;;;10.27;5.90;;;3.30;96.10;;;;;;5050402;28;20817;-74
2021/01/01 07:18:44;;;;;;;14.18;6.80;;;3.20;96.30;;;;;;5050702;28;20198;-74
2021/01/01 07:21:13;;;;;;;15.07;6.70;;;3.30;96.40;;;;;;5054655;28;20210;-74
2021/01/01 07:23:39;;;;;;;9.20;5.85;;;3.30;96.60;;;;;;5058775;28;20449;-74
2021/01/01 07:26:05;;;;;;;9.73;5.03;;;3.40;96.50;;;;;;5068783;28;20271;-73
2021/01/01 07:28:31;;;;;;;10.25;5.68;;;3.50;96.20;;;;;;5060701;28;20231;-74
2021/01/01 07:30:58;;;;;;;12.77;5.73;;;3.50;95.90;;;;;;5056421;28;20192;-72
2021/01/01 07:33:28;;;;;;;12.33;5.37;;;3.50;95.60;;;;;;5057041;28;20527;-75
2021/01/01 07:35:55;;;;;;;11.77;6.32;;;3.40;95.20;;;;;;5067854;28;20477;-75
2021/01/01 07:38:22;;;;;;;9.40;5.80;;;3.40;95.20;;;;;;5068289;28;20184;-74
2021/01/01 07:40:49;;;;;;;10.27;5.40;;;3.30;95.00;;;;;;5062520;28;20818;-72
2021/01/01 07:43:15;;;;;;;13.00;5.53;;;3.30;94.60;;;;;;5059344;28;20516;-74
2021/01/01 07:45:41;;;;;;;10.37;6.10;;;3.30;94.30;;;;;;5051451;28;20268;-75
2021/01/01 07:48:07;;;;;;;12.87;5.30;;;3.20;94.30;;;;;;5050051;28;20466;-73
2021/01/01 07:50:34;;;;;;;8.10;5.00;;;3.20;94.40;;;;;;5050974;28;20207;-71
2021/01/01 07:53:08;;;;;;;15.60;7.45;;;3.30;94.40;;;;;;5050606;28;20201;-73
2021/01/01 07:55:35;;;;;;;12.50;5.57;;;3.30;94.60;;;;;;5037992;28;20192;-73
2021/01/01 07:58:04;;;;;;;8.60;5.00;;;3.30;94.80;;;;;;5062243;28;20199;-72
2021/01/01 08:00:31;;;;;;;10.13;5.40;;;3.30;94.70;;;;;;5057417;28;20418;-73
2021/01/01 08:02:59;;;;;;;10.15;5.55;;;3.30;94.90;;;;;;5055281;28;20224;-74
2021/01/01 08:05:25;;;;;;;9.60;5.15;;;3.30;94.20;;;;;;5049550;28;20188;-75
2021/01/01 08:07:51;;;;;;;12.63;6.10;;;3.40;94.20;;;;;;5050157;28;20197;-74
2021/01/01 08:10:30;;;;;;;7.10;4.20;;;3.50;94.10;;;;;;5048984;28;20187;-73
2021/01/01 08:12:56;;;;;;;9.20;4.93;;;3.50;94.00;;;;;;5050666;28;21137;-74
2021/01/01 08:15:29;;;;;;;11.00;5.20;;;3.50;93.70;;;;;;5048124;28;20513;-74
2021/01/01 08:17:55;;;;;;;8.67;5.40;;;3.60;93.60;;;;;;5049238;28;20238;-73
2021/01/01 08:20:21;;;;;;;7.27;4.30;;;3.70;93.70;;;;;;5062834;28;20968;-74
2021/01/01 08:22:49;;;;;;;10.30;5.30;;;3.70;93.70;;;;;;5054709;28;20512;-74
2021/01/01 08:25:17;;;;;;;8.20;4.47;;;3.80;93.70;;;;;;5065132;28;20180;-74
2021/01/01 08:27:44;;;;;;;6.70;4.00;;;3.90;92.90;;;;;;5060337;28;20191;-73
2021/01/01 08:30:11;;;;;;;8.87;4.43;;;3.90;91.90;;;;;;5060450;28;20431;-74
2021/01/01 08:32:39;;;;;;;7.93;4.57;;;3.90;91.30;;;;;;5058119;28;20449;-74
2021/01/01 08:35:08;;;;;;;6.87;3.97;;;3.90;91.10;;;;;;5069390;28;20511;-73
2021/01/01 08:37:34;;;;;;;7.87;4.33;;;4.00;91.20;;;;;;5046055;28;20410;-74
2021/01/01 08:40:01;;;;;;;7.97;4.13;;;4.00;91.00;;;;;;5067928;28;20798;-75
2021/01/01 08:42:33;;;;;;;8.50;4.50;;;4.00;90.80;;;;;;5056764;28;20176;-74
2021/01/01 08:44:59;;;;;;;10.47;4.40;;;4.00;91.00;;;;;;5053070;28;20438;-74
2021/01/01 08:47:43;;;;;;;8.30;4.10;;;4.10;91.10;;;;;;5049332;28;20495;-75
2021/01/01 08:50:27;;;;;;;5.63;3.90;;;4.10;91.30;;;;;;5049315;28;20671;-74
2021/01/01 08:52:59;;;;;;;11.20;6.07;;;4.10;90.60;;;;;;5048314;28;20958;-73
2021/01/01 08:55:26;;;;;;;8.85;5.03;;;4.00;90.70;;;;;;5051980;28;20948;-73
2021/01/01 08:58:14;;;;;;;7.27;4.73;;;4.10;91.10;;;;;;5050996;28;20216;-74
2021/01/01 09:00:43;;;;;;;5.83;4.17;;;4.10;90.80;;;;;;5047493;28;20410;-74
2021/01/01 09:03:09;;;;;;;7.37;4.03;;;4.10;90.60;;;;;;5052733;28;20434;-74
2021/01/01 09:05:36;;;;;;;8.43;4.90;;;4.00;90.50;;;;;;5048502;28;20481;-74
2021/01/01 09:08:12;;;;;;;6.77;3.67;;;4.00;90.50;;;;;;5062503;28;21038;-74
2021/01/01 09:10:47;;;;;;;4.72;2.90;;;3.90;90.80;;;;;;5061032;28;20517;-75
2021/01/01 09:13:21;;;;;;;4.57;3.07;;;3.80;90.00;;;;;;5055115;28;20205;-73
2021/01/01 09:16:00;;;;;;;8.68;3.83;;;3.80;89.70;;;;;;5054532;28;20522;-74
2021/01/01 09:18:26;;;;;;;6.22;3.47;;;3.90;90.10;;;;;;5045811;28;20203;-73
2021/01/01 09:21:07;;;;;;;8.13;3.67;;;4.00;90.00;;;;;;5048681;28;20180;-74
2021/01/01 09:23:33;;;;;;;8.20;3.63;;;4.10;90.10;;;;;;5048149;28;20434;-73
2021/01/01 09:25:58;;;;;;;6.20;4.07;;;4.20;89.70;;;;;;5050185;28;20415;-73
2021/01/01 09:28:25;;;;;;;7.70;3.50;;;4.10;89.50;;;;;;5047795;28;20242;-74
2021/01/01 09:30:51;;;;;;;7.40;4.30;;;4.10;89.20;;;;;;5047184;28;20181;-74
2021/01/01 09:33:16;;;;;;;6.83;3.40;;;4.30;89.50;;;;;;5049643;28;20806;-72
2021/01/01 09:35:42;;;;;;;5.77;3.50;;;4.40;88.10;;;;;;5047637;28;20192;-73
2021/01/01 09:38:08;;;;;;;5.53;3.60;;;4.40;87.60;;;;;;5047330;28;20242;-74
2021/01/01 09:40:34;;;;;;;6.60;4.23;;;4.40;87.40;;;;;;5048208;28;20177;-71
2021/01/01 09:43:06;;;;;;;5.20;3.10;;;4.50;87.40;;;;;;5060070;28;20570;-71
2021/01/01 09:45:37;;;;;;;6.00;3.50;;;4.40;87.30;;;;;;5051738;28;20897;-71
2021/01/01 09:48:04;;;;;;;6.50;3.40;;;4.50;86.90;;;;;;5053425;28;21023;-71
2021/01/01 09:50:30;;;;;;;5.93;3.23;;;4.40;86.00;;;;;;5052294;28;20531;-70
2021/01/01 09:52:56;;;;;;;8.80;3.50;;;4.40;86.60;;;;;;5053288;28;21289;-70
2021/01/01 09:55:22;;;;;;;8.17;3.83;;;4.40;86.50;;;;;;5050817;28;20426;-70
2021/01/01 09:57:48;;;;;;;5.90;3.40;;;4.30;85.70;;;;;;5051942;28;20415;-70
2021/01/01 10:00:16;;;;;;;5.70;3.40;;;4.30;86.30;;;;;;5052876;28;20414;-70
2021/01/01 10:02:42;;;;;;;5.73;3.30;;;4.30;86.90;;;;;;5051820;28;20804;-71
2021/01/01 10:05:09;;;;;;;5.70;3.70;;;4.40;86.80;;;;;;5053020;28;20512;-71
2021/01/01 10:07:35;;;;;;;7.37;4.20;;;4.50;86.20;;;;;;5054156;28;20450;-71
2021/01/01 10:10:02;;;;;;;6.93;3.60;;;4.60;86.00;;;;;;5052779;28;20519;-71
2021/01/01 10:12:28;;;;;;;6.73;4.10;;;4.80;86.00;;;;;;5054209;28;20455;-71
2021/01/01 10:14:54;;;;;;;5.10;3.57;;;4.80;85.20;;;;;;5052881;28;20800;-72
2021/01/01 10:17:24;;;;;;;7.23;3.60;;;4.70;83.80;;;;;;5053543;28;20419;-71
2021/01/01 10:19:50;;;;;;;6.60;3.80;;;4.70;83.60;;;;;;5056589;28;20422;-72
2021/01/01 10:22:17;;;;;;;6.93;4.10;;;4.80;84.30;;;;;;5053798;28;20498;-73
2021/01/01 10:24:46;;;;;;;8.33;4.20;;;4.70;84.70;;;;;;5053442;28;20930;-74
2021/01/01 10:27:14;;;;;;;8.00;3.70;;;4.70;84.70;;;;;;5055158;28;20502;-75
2021/01/01 10:29:40;;;;;;;5.20;3.13;;;4.80;84.30;;;;;;5041542;28;20467;-73
2021/01/01 10:32:10;;;;;;;5.40;3.23;;;4.90;83.40;;;;;;5053643;28;20922;-75
2021/01/01 10:34:40;;;;;;;7.80;4.10;;;4.90;81.50;;;;;;5054337;28;20859;-74
2021/01/01 10:37:05;;;;;;;3.90;2.83;;;4.80;81.70;;;;;;5052251;28;20423;-75
2021/01/01 10:39:31;;;;;;;8.50;4.00;;;4.80;82.40;;;;;;5053369;28;20480;-73
2021/01/01 10:41:57;;;;;;;5.93;3.40;;;4.90;82.80;;;;;;5054290;28;20266;-73
2021/01/01 10:44:23;;;;;;;5.77;3.87;;;4.90;82.80;;;;;;5053640;28;20201;-73
2021/01/01 10:46:55;;;;;;;6.20;3.37;;;4.90;82.80;;;;;;5052884;28;20830;-73
2021/01/01 10:49:22;;;;;;;5.87;3.40;;;5.00;83.00;;;;;;5053267;28;20575;-74
2021/01/01 10:51:48;;;;;;;6.50;4.03;;;5.10;82.50;;;;;;5053389;28;20905;-73
2021/01/01 10:54:14;;;;;;;7.20;3.70;;;5.10;82.10;;;;;;5052755;28;20500;-74
2021/01/01 10:56:40;;;;;;;7.00;3.90;;;5.00;82.20;;;;;;5052868;28;20948;-72
2021/01/01 10:59:06;;;;;;;7.30;4.10;;;5.10;81.90;;;;;;5052472;28;20415;-75
2021/01/01 11:01:32;;;;;;;7.77;4.03;;;5.20;82.10;;;;;;5052887;28;20476;-73
2021/01/01 11:03:58;;;;;;;7.53;3.80;;;5.10;81.80;;;;;;5056688;28;20431;-75
2021/01/01 11:06:23;;;;;;;6.93;3.67;;;5.10;82.20;;;;;;5053849;28;20580;-73
2021/01/01 11:08:49;;;;;;;6.50;3.63;;;5.20;81.80;;;;;;5055611;28;20576;-73
2021/01/01 11:11:20;;;;;;;5.00;3.20;;;5.10;81.20;;;;;;5053392;28;20234;-74
2021/01/01 12:22:54;;;;;;;7.17;3.63;;;5.10;80.80;;;;;;5054576;28;20438;-73
2021/01/01 12:25:20;;;;;;;7.60;3.70;;;5.20;80.00;;;;;;5056462;28;20426;-73
2021/01/01 12:27:48;;;;;;;6.87;3.90;;;5.10;79.30;;;;;;5058270;28;20505;-74
2021/01/01 12:30:16;;;;;;;5.93;3.67;;;5.10;79.30;;;;;;5059844;28;20446;-75
2021/01/01 12:32:42;;;;;;;5.67;4.00;;;5.20;80.50;;;;;;5057250;28;20840;-74
2021/01/01 12:35:10;;;;;;;7.40;4.40;;;5.20;80.90;;;;;;5055530;28;20519;-74
2021/01/01 12:37:37;;;;;;;7.90;3.40;;;5.40;81.10;;;;;;5050385;28;20419;-74
2021/01/01 12:40:05;;;;;;;7.40;3.87;;;5.40;79.70;;;;;;5063341;28;20514;-76
2021/01/01 12:42:31;;;;;;;7.87;3.67;;;5.50;78.60;;;;;;5050048;28;20418;-75
2021/01/01 12:44:56;;;;;;;10.50;4.80;;;5.50;78.60;;;;;;5049827;28;20964;-74
2021/01/01 12:47:23;;;;;;;8.53;4.43;;;5.50;78.30;;;;;;5049744;28;20176;-73
2021/01/01 12:49:49;;;;;;;12.50;5.60;;;5.50;77.80;;;;;;5048721;28;20646;-75
2021/01/01 12:52:15;;;;;;;5.97;4.10;;;5.50;77.60;;;;;;5068990;28;20418;-75
2021/01/01 12:54:40;;;;;;;8.73;4.57;;;5.40;76.20;;;;;;5067333;28;20183;-74
2021/01/01 12:57:06;;;;;;;8.30;4.57;;;5.40;76.50;;;;;;5049698;28;20208;-74
2021/01/01 12:59:32;;;;;;;7.93;4.33;;;5.20;77.00;;;;;;5049301;28;20188;-75
2021/01/01 13:01:58;;;;;;;6.77;4.10;;;5.30;77.70;;;;;;5049796;28;20188;-75
2021/01/01 13:04:24;;;;;;;8.07;4.53;;;5.40;77.80;;;;;;5049025;28;20443;-74
2021/01/01 13:06:51;;;;;;;8.17;4.40;;;5.40;78.00;;;;;;5051751;28;20477;-73
2021/01/01 13:09:17;;;;;;;7.13;4.47;;;5.30;77.00;;;;;;5051728;28;20458;-74
2021/01/01 13:11:44;;;;;;;7.63;4.37;;;5.30;76.80;;;;;;5051714;28;20434;-74
2021/01/01 13:14:09;;;;;;;9.37;4.20;;;5.20;76.80;;;;;;5064386;28;20446;-73
2021/01/01 13:16:35;;;;;;;7.00;3.90;;;5.20;77.00;;;;;;5050415;28;20429;-75
2021/01/01 13:19:01;;;;;;;9.57;4.63;;;5.00;77.70;;;;;;5047991;28;20438;-73
2021/01/01 13:21:32;;;;;;;10.30;4.70;;;5.00;78.60;;;;;;5057149;28;20195;-76
2021/01/01 13:23:58;;;;;;;7.67;4.63;;;4.90;78.60;;;;;;5067642;28;20217;-75
2021/01/01 13:26:25;;;;;;;8.00;4.53;;;4.80;78.40;;;;;;5049074;28;20454;-74
2021/01/01 13:28:52;;;;;;;7.70;4.80;;;4.80;79.00;;;;;;5048362;28;21055;-74
2021/01/01 13:31:17;;;;;;;9.03;4.27;;;4.80;79.50;;;;;;5057806;28;20418;-74
2021/01/01 13:33:44;;;;;;;6.90;4.00;;;4.80;80.20;;;;;;5051981;28;20530;-73
2021/01/01 13:36:17;;;;;;;12.27;5.47;;;4.80;79.60;;;;;;5055572;28;20434;-74
2021/01/01 13:38:44;;;;;;;10.83;5.83;;;4.90;79.70;;;;;;5050927;28;20434;-74
2021/01/01 13:41:10;;;;;;;7.80;4.60;;;4.90;79.60;;;;;;5048125;28;20434;-75
2021/01/01 13:43:41;;;;;;;6.57;4.43;;;4.90;79.20;;;;;;5051192;28;20509;-73
2021/01/01 13:46:08;;;;;;;9.40;4.60;;;4.90;79.60;;;;;;5068704;28;20477;-73
2021/01/01 13:48:35;;;;;;;6.80;3.60;;;5.00;79.60;;;;;;5053106;28;20512;-74
2021/01/01 13:51:01;;;;;;;7.97;5.13;;;5.10;78.30;;;;;;5049631;28;20419;-74
2021/01/01 13:53:27;;;;;;;8.60;4.90;;;5.20;77.60;;;;;;5050840;28;20486;-77
2021/01/01 13:55:53;;;;;;;8.27;4.20;;;5.30;76.80;;;;;;5057712;28;20450;-74
2021/01/01 13:58:18;;;;;;;5.93;3.90;;;5.20;76.20;;;;;;5065839;28;20215;-75